Pagrindinis puslapis
METAR-TAF:

METAR-TAF

Oro uostai :

Veliko Tirnovas, Bulgarija

platuma: 43-09N, ilguma: 025-36E, Aukštis: 87 m

Dabartinis oras

Ataskaita buvo paskelbta 22 minutes, ne 18:30 UTC
Ramus vėjas
Temperatūra 10°C
Drėgmė 66%
Slėgis 1018 hPa
Matomumas 10 km arba daugiau

METAR: LBGO 121830Z AUTO 00000KT 9999 NCD 10/04 Q1018

Laikas: 21:52 (18:52 UTC)

Prognozė

Ataskaita buvo paskelbta 1 valandą ir 52 minutes, ne 17:00 UTC
Prognozė galioja nuo 12 metu 18 UTC su 13 metu 18 UTC
Vėjas 4 kt nuo kintamojo kryptimis
Matomumas 10 km arba daugiau
nėra debesų žemiau 1500 m ir nėra kamuolinių lietaus debesų
Laikinai
nuo 13 metu 01 UTC su 13 metu 05 UTC
Matomumas: 3000 m
rūkana
Laikinai
nuo 13 metu 15 UTC su 13 metu 18 UTC
Matomumas: 5000 m
Išsisklaidę debesys ne aukštis 2000 ft
Mažai debesys ne aukštis 3000 ft, Liūtiniai kamuoliniai debesys.
Su prošvaistėmis ne aukštis 5000 ft
lietus

TAF: LBGO 121700Z 1218/1318 VRB04KT CAVOK TEMPO 1301/1305 3000 BR TEMPO 1315/1318 5000 SHRA SCT020 FEW030CB BKN050

Orai ataskaitas ir orų prognozės (METAR, TAF).

turimą stotys yra geltonos ir raudonos taškus žemėlapyje.

Perkelti pele per norėdami pamatyti stoties vardą.

Tada spustelėkite, norėdami matyti oro stebėjimo ir prognozės.

Norėdami pakeisti žemėlapį: spustelėkite ant žalios mygtukų su juodo kryžiaus žemyn,; žalią mygtuką su brūkšneliu, jei norite nutolinti; arba žalių rodyklių gretimoms žemėlapius.


METAR-TAF: